Klossner, Minnesota
Current Conditions -  °F | °C
As of 7:14 PM on Tuesday 21 Oct 2014 (Local Time) from KULM Reporting Station
Clear Clear  
Wind Chill: 57°   Ceiling: Unl
Heat Index: 57°   Visibility: 10mi
Dew Point: 41°   Wind: 12mph
Humidity: 55%   Direction: 130°SE
Pressure: 30.08"   Gusts: NA
Location:  44.2563°N, 94.471°W
Report Text: KULM 220014Z AUTO 13010KT 10SM CLR 14/05 A3008 RMK AO2
Loading
Personal Weather Stations






























Interactive Weather Map
Tropical Storm Tracking
New forecast layout! Learn more

10-Day Weather Forecast

Advertisements
Track Severe Weather on mobile